Time;durP1;ratioP1;P1;durP2;ratioP2;P2;SDS_P1;SDS_P2;PMS_P1;PMS_P2;Temp;Humidity;BMP_temperature;BMP_pressure;BME280_temperature;BME280_humidity;BME280_pressure;Samples;Min_cycle;Max_cycle;Signal;HPM_P1;HPM_P2
2022/03/25 00:01:16;;;;;;;;;;;;;;;;;;5109719;27;19924;-69
2022/03/25 00:03:43;;;;;;;;;;;;;;;;;;5105455;28;20018;-69
2022/03/25 00:06:11;;;;;;;;;;;;;;;;;;5110923;28;21319;-69
2022/03/25 00:08:38;;;;;;;;;;;;;;;;;;5105772;28;19939;-69
2022/03/25 00:11:05;;;;;;;;;;;;;;;;;;5110232;28;19923;-69
2022/03/25 00:13:32;;;;;;;;;;;;;;;;;;5103134;27;20012;-70
2022/03/25 00:15:59;;;;;;;;;;;;;;;;;;5106788;28;20023;-69
2022/03/25 00:18:26;;;;;;;;;;;;;;;;;;5107278;28;19963;-69
2022/03/25 00:20:53;;;;;;;;;;;;;;;;;;5107245;28;20382;-69
2022/03/25 00:23:20;;;;;;;;;;;;;;;;;;5106662;28;19928;-69
2022/03/25 00:25:47;;;;;;;;;;;;;;;;;;5110204;28;19930;-69
2022/03/25 00:28:14;;;;;;;;;;;;;;;;;;5107290;28;20026;-70
2022/03/25 00:30:42;;;;;;;;;;;;;;;;;;5106904;28;20015;-69
2022/03/25 00:33:11;;;;;;;;;;;7.10;99.90;;;;;;5107184;28;19949;-70
2022/03/25 00:35:38;;;;;;;;;;;7.00;99.90;;;;;;5111104;28;19942;-69
2022/03/25 00:38:04;;;;;;;;;;;7.00;99.90;;;;;;5106928;28;20006;-69
2022/03/25 00:40:32;;;;;;;;;;;6.90;99.90;;;;;;5104504;28;19934;-69
2022/03/25 00:42:59;;;;;;;;;;;7.00;99.90;;;;;;5107834;28;19931;-70
2022/03/25 00:45:28;;;;;;;;;;;6.90;99.90;;;;;;5109945;28;19931;-70
2022/03/25 00:47:55;;;;;;;;;;;6.90;99.90;;;;;;5108706;28;19975;-70
2022/03/25 00:50:24;;;;;;;;;;;6.90;99.90;;;;;;5106998;28;19924;-69
2022/03/25 00:52:51;;;;;;;;;;;6.90;99.90;;;;;;5106623;28;19923;-69
2022/03/25 00:55:18;;;;;;;;;;;6.90;99.90;;;;;;5102530;28;19924;-70
2022/03/25 00:57:45;;;;;;;;;;;6.90;99.90;;;;;;5108373;28;19931;-69
2022/03/25 01:00:12;;;;;;;;;;;6.90;99.90;;;;;;5108928;28;19969;-69
2022/03/25 01:02:39;;;;;;;;;;;6.80;99.90;;;;;;5108832;28;19924;-69
2022/03/25 01:05:06;;;;;;;;;;;6.70;99.90;;;;;;5109420;28;19966;-74
2022/03/25 01:07:34;;;;;;;;;;;6.70;99.90;;;;;;5112443;28;19930;-70
2022/03/25 01:10:01;;;;;;;;;;;6.70;99.90;;;;;;5110195;27;19932;-70
2022/03/25 01:12:28;;;;;;;;;;;6.70;99.90;;;;;;5112745;28;19924;-70
2022/03/25 01:14:55;;;;;;;;;;;6.60;99.90;;;;;;5113323;28;19931;-70
2022/03/25 01:17:22;;;;;;;;;;;6.60;99.90;;;;;;5113067;28;20362;-70
2022/03/25 01:19:48;;;;;;;;;;;6.60;99.90;;;;;;5109918;28;20014;-70
2022/03/25 01:22:15;;;;;;;;;;;6.50;99.90;;;;;;5112163;28;19998;-70
2022/03/25 01:24:43;;;;;;;;;;;6.40;99.90;;;;;;5112410;28;19963;-70
2022/03/25 01:27:10;;;;;;;;;;;6.40;99.90;;;;;;5112471;28;20283;-71
2022/03/25 01:29:37;;;;;;;;;;;6.40;99.90;;;;;;5108608;28;19928;-70
2022/03/25 01:32:06;;;;;;;;;;;6.40;99.90;;;;;;5111791;28;19927;-70
2022/03/25 01:34:33;;;;;;;;;;;6.40;99.90;;;;;;5108660;27;19965;-69
2022/03/25 01:37:00;;;;;;;;;;;6.40;99.90;;;;;;5115331;28;19938;-70
2022/03/25 01:39:26;;;;;;;;;;;6.30;99.90;;;;;;5107807;28;20367;-71
2022/03/25 01:41:55;;;;;;;;;;;6.30;99.90;;;;;;5115676;28;19924;-70
2022/03/25 01:44:25;;;;;;;;;;;6.30;99.90;;;;;;5111251;27;19923;-70
2022/03/25 01:46:52;;;;;;;;;;;;;;;;;;5113167;28;19924;-70
2022/03/25 01:49:19;;;;;;;;;;;6.10;99.90;;;;;;5107280;28;20521;-69
2022/03/25 01:51:48;;;;;;;;;;;6.10;99.90;;;;;;5111708;27;19924;-69
2022/03/25 01:54:19;;;;;;;;;;;6.00;99.90;;;;;;5108054;27;20437;-70
2022/03/25 01:56:46;;;;;;;;;;;5.90;99.90;;;;;;5112830;28;19963;-70
2022/03/25 01:59:13;;;;;;;;;;;;;;;;;;5111427;28;19923;-68
2022/03/25 02:01:42;;;;;;;;;;;5.80;99.90;;;;;;5110099;28;19923;-69
2022/03/25 02:04:09;;;;;;;;;;;5.80;99.90;;;;;;5112388;28;20274;-70
2022/03/25 02:06:36;;;;;;;;;;;5.80;99.90;;;;;;5109175;28;20002;-69
2022/03/25 02:09:03;;;;;;;;;;;5.80;99.90;;;;;;5109357;28;19924;-69
2022/03/25 02:11:30;;;;;;;;;;;5.80;99.90;;;;;;5106369;28;19923;-73
2022/03/25 02:13:56;;;;;;;;;;;5.70;99.90;;;;;;5112695;28;19946;-70
2022/03/25 02:16:33;;;;;;;;;;;5.80;99.90;;;;;;5112739;28;20375;-70
2022/03/25 02:19:01;;;;;;;;;;;5.70;99.90;;;;;;5103253;28;19923;-69
2022/03/25 02:21:30;;;;;;;;;;;5.70;99.90;;;;;;5111146;28;19923;-70
2022/03/25 02:23:57;;;;;;;;;;;5.70;99.90;;;;;;5110266;28;19947;-69
2022/03/25 02:26:24;;;;;;;;;;;5.50;99.90;;;;;;5112151;28;19924;-69
2022/03/25 02:28:50;;;;;;;;;;;5.50;99.90;;;;;;5109296;28;19934;-70
2022/03/25 02:31:17;;;;;;;;;;;5.50;99.90;;;;;;5107604;28;19924;-69
2022/03/25 02:33:44;;;;;;;;;;;5.50;99.90;;;;;;5106906;28;19930;-69
2022/03/25 02:36:11;;;;;;;;;;;5.50;99.90;;;;;;5113955;28;19932;-70
2022/03/25 02:38:39;;;;;;;;;;;5.40;99.90;;;;;;5110186;28;20375;-69
2022/03/25 02:41:05;;;;;;;;;;;5.40;99.90;;;;;;5109723;28;19930;-70
2022/03/25 02:43:32;;;;;;;;;;;5.50;99.90;;;;;;5107424;28;19923;-69
2022/03/25 02:45:59;;;;;;;;;;;5.50;99.90;;;;;;5111258;28;19924;-69
2022/03/25 02:48:25;;;;;;;;;;;5.60;99.90;;;;;;5106036;28;19932;-69
2022/03/25 02:50:52;;;;;;;;;;;5.70;99.90;;;;;;5107280;28;19938;-69
2022/03/25 02:53:19;;;;;;;;;;;5.60;99.90;;;;;;5105672;28;19931;-69
2022/03/25 02:55:46;;;;;;;;;;;5.60;99.90;;;;;;5111652;28;20010;-69
2022/03/25 02:58:13;;;;;;;;;;;5.70;99.90;;;;;;5112382;28;19924;-71
2022/03/25 03:00:42;;;;;;;;;;;5.50;99.90;;;;;;5108671;28;19930;-71
2022/03/25 03:03:08;;;;;;;;;;;5.50;99.90;;;;;;5111411;28;19924;-69
2022/03/25 03:05:35;;;;;;;;;;;5.40;99.90;;;;;;5110576;28;20390;-69
2022/03/25 03:08:02;;;;;;;;;;;5.30;99.90;;;;;;5106313;28;20302;-70
2022/03/25 03:10:29;;;;;;;;;;;5.40;99.90;;;;;;5108576;28;19931;-70
2022/03/25 03:12:58;;;;;;;;;;;5.40;99.90;;;;;;5034880;28;2096698;-69
2022/03/25 03:15:26;;;;;;;;;;;5.30;99.90;;;;;;5111291;28;20023;-69
2022/03/25 03:17:53;;;;;;;;;;;5.30;99.90;;;;;;5111208;28;19947;-69
2022/03/25 03:20:20;;;;;;;;;;;5.30;99.90;;;;;;5107533;28;20330;-69
2022/03/25 03:22:47;;;;;;;;;;;5.30;99.90;;;;;;5102523;28;21611;-69
2022/03/25 03:25:13;;;;;;;;;;;5.30;99.90;;;;;;5099870;28;20007;-68
2022/03/25 03:27:41;;;;;;;;;;;5.20;99.90;;;;;;5100869;28;20289;-69
2022/03/25 03:30:11;;;;;;;;;;;5.20;99.90;;;;;;5100726;27;19924;-71
2022/03/25 03:32:37;;;;;;;;;;;5.20;99.90;;;;;;5101858;28;20004;-69
2022/03/25 03:35:05;;;;;;;;;;;5.20;99.90;;;;;;5099298;28;19943;-69
2022/03/25 03:37:32;;;;;;;;;;;5.20;99.90;;;;;;5100887;28;19932;-69
2022/03/25 03:39:59;;;;;;;;;;;5.20;99.90;;;;;;5099536;27;19940;-69
2022/03/25 03:42:25;;;;;;;;;;;5.10;99.90;;;;;;5101493;27;20378;-69
2022/03/25 03:44:52;;;;;;;;;;;5.00;99.90;;;;;;5100908;28;19931;-69
2022/03/25 03:47:20;;;;;;;;;;;5.10;99.90;;;;;;5105094;28;19923;-69
2022/03/25 03:49:47;;;;;;;;;;;5.10;99.90;;;;;;5097864;28;19955;-69
2022/03/25 03:52:14;;;;;;;;;;;5.10;99.90;;;;;;5099142;28;19997;-69
2022/03/25 03:54:41;;;;;;;;;;;5.10;99.90;;;;;;5100184;28;19973;-70
2022/03/25 03:57:11;;;;;;;;;;;5.00;99.90;;;;;;5099120;28;20023;-69
2022/03/25 03:59:37;;;;;;;;;;;5.10;99.90;;;;;;5096568;28;19930;-69
2022/03/25 04:02:04;;;;;;;;;;;5.00;99.90;;;;;;5099940;28;19931;-69
2022/03/25 04:04:32;;;;;;;;;;;5.00;99.90;;;;;;5105352;28;19971;-70
2022/03/25 04:07:00;;;;;;;;;;;5.00;99.90;;;;;;5098139;28;19934;-71
2022/03/25 04:09:27;;;;;;;;;;;4.90;99.90;;;;;;5094558;27;20905;-70
2022/03/25 04:11:54;;;;;;;;;;;5.00;99.90;;;;;;5100022;28;19930;-70
2022/03/25 04:14:20;;;;;;;;;;;4.80;99.90;;;;;;5100562;28;19934;-69
2022/03/25 04:16:47;;;;;;;;;;;4.80;99.90;;;;;;5100769;28;19927;-69
2022/03/25 04:19:14;;;;;;;;;;;4.80;99.90;;;;;;5099082;28;19931;-70
2022/03/25 04:21:42;;;;;;;;;;;4.70;99.90;;;;;;5099227;28;20271;-69
2022/03/25 04:24:08;;;;;;;;;;;4.80;99.90;;;;;;5098394;28;19924;-70
2022/03/25 04:26:35;;;;;;;;;;;4.70;99.90;;;;;;5101469;28;20310;-69
2022/03/25 04:29:02;;;;;;;;;;;4.60;99.90;;;;;;5098029;28;19954;-69
2022/03/25 04:31:29;;;;;;;;;;;4.60;99.90;;;;;;5099408;28;20481;-69
2022/03/25 04:33:55;;;;;;;;;;;4.60;99.90;;;;;;5097502;28;19950;-69
2022/03/25 04:36:22;;;;;;;;;;;4.60;99.90;;;;;;5102779;28;19924;-69
2022/03/25 04:38:50;;;;;;;;;;;4.60;99.90;;;;;;5104073;28;20294;-68
2022/03/25 04:41:17;;;;;;;;;;;4.60;99.90;;;;;;5101045;27;19931;-68
2022/03/25 04:43:44;;;;;;;;;;;4.50;99.90;;;;;;5103764;28;19938;-69
2022/03/25 04:46:10;;;;;;;;;;;4.50;99.90;;;;;;5104076;27;19955;-71
2022/03/25 04:48:38;;;;;;;;;;;4.50;99.90;;;;;;5100074;27;20310;-70
2022/03/25 04:51:05;;;;;;;;;;;4.50;99.90;;;;;;5104802;27;19930;-75
2022/03/25 04:53:33;;;;;;;;;;;4.50;99.90;;;;;;5107846;28;19932;-69
2022/03/25 04:56:01;;;;;;;;;;;4.50;99.90;;;;;;5104975;28;20347;-69
2022/03/25 04:58:30;;;;;;;;;;;4.40;99.90;;;;;;5105555;28;19935;-70
2022/03/25 05:00:57;;;;;;;;;;;4.40;99.90;;;;;;5114491;28;20403;-71
2022/03/25 05:03:24;;;;;;;;;;;4.30;99.90;;;;;;5110364;28;19925;-70
2022/03/25 05:05:51;;;;;;;;;;;4.40;99.90;;;;;;5113407;28;19924;-69
2022/03/25 05:08:18;;;;;;;;;;;4.40;99.90;;;;;;5104545;28;19924;-69
2022/03/25 05:10:44;;;;;;;;;;;4.40;99.90;;;;;;5104663;28;19923;-69
2022/03/25 05:13:12;;;;;;;;;;;4.40;99.90;;;;;;5102001;28;20382;-69
2022/03/25 05:15:39;;;;;;;;;;;4.20;99.90;;;;;;5104967;27;19931;-70
2022/03/25 05:18:06;;;;;;;;;;;4.20;99.90;;;;;;5103611;28;19927;-69
2022/03/25 05:20:32;;;;;;;;;;;4.20;99.90;;;;;;5110186;28;19967;-70
2022/03/25 05:22:59;;;;;;;;;;;4.10;99.90;;;;;;5099263;28;19928;-70
2022/03/25 05:25:26;;;;;;;;;;;4.20;99.90;;;;;;5104620;27;20018;-70
2022/03/25 05:27:53;;;;;;;;;;;4.10;99.90;;;;;;5101412;27;20026;-70
2022/03/25 05:30:25;;;;;;;;;;;4.10;99.90;;;;;;5110985;28;19924;-70
2022/03/25 05:32:52;;;;;;;;;;;4.00;99.90;;;;;;5102970;28;19927;-69
2022/03/25 05:35:19;;;;;;;;;;;3.90;99.90;;;;;;5099376;27;19931;-70
2022/03/25 05:37:45;;;;;;;;;;;3.90;99.90;;;;;;5105833;28;19924;-70
2022/03/25 05:40:12;;;;;;;;;;;4.00;99.90;;;;;;5102839;27;20390;-69
2022/03/25 05:42:40;;;;;;;;;;;3.90;99.90;;;;;;5105541;28;19930;-69
2022/03/25 05:45:07;;;;;;;;;;;4.00;99.90;;;;;;5102676;28;19931;-69
2022/03/25 05:47:36;;;;;;;;;;;4.00;99.90;;;;;;5102756;28;19928;-70
2022/03/25 05:50:03;;;;;;;;;;;4.00;99.90;;;;;;5105746;28;19931;-71
2022/03/25 05:52:32;;;;;;;;;;;3.90;99.90;;;;;;5106325;27;19932;-72
2022/03/25 05:54:59;;;;;;;;;;;3.90;99.90;;;;;;5102426;27;19924;-72
2022/03/25 05:57:25;;;;;;;;;;;4.00;99.90;;;;;;5101269;27;20418;-70
2022/03/25 05:59:52;;;;;;;;;;;4.10;99.90;;;;;;5097924;28;20417;-70
2022/03/25 06:02:19;;;;;;;;;;;4.20;99.90;;;;;;5104711;28;19928;-70
2022/03/25 06:04:47;;;;;;;;;;;4.30;99.90;;;;;;5098090;27;19924;-68
2022/03/25 06:07:14;;;;;;;;;;;4.30;99.90;;;;;;5101786;28;20286;-69
2022/03/25 06:09:40;;;;;;;;;;;4.20;99.90;;;;;;5103234;28;20343;-69
2022/03/25 06:12:07;;;;;;;;;;;4.20;99.90;;;;;;5102340;28;19962;-69
2022/03/25 06:14:34;;;;;;;;;;;4.30;99.90;;;;;;5102097;28;19930;-70
2022/03/25 06:17:01;;;;;;;;;;;4.30;99.90;;;;;;5099120;27;19938;-70
2022/03/25 06:19:28;;;;;;;;;;;4.30;99.90;;;;;;5107827;27;19924;-70
2022/03/25 06:21:56;;;;;;;;;;;4.50;99.90;;;;;;5101278;27;19924;-70
2022/03/25 06:24:23;;;;;;;;;;;4.50;99.90;;;;;;5101502;28;19953;-70
2022/03/25 06:26:52;;;;;;;;;;;4.70;99.90;;;;;;5101514;28;20306;-70
2022/03/25 06:29:19;;;;;;;;;;;4.80;99.90;;;;;;5103128;27;19927;-75
2022/03/25 06:31:45;;;;;;;;;;;4.90;99.90;;;;;;5100088;27;19931;-70
2022/03/25 06:34:12;;;;;;;;;;;5.00;99.90;;;;;;5105833;27;19924;-71
2022/03/25 06:36:39;;;;;;;;;;;5.10;99.90;;;;;;5104539;28;19932;-67
2022/03/25 06:39:06;;;;;;;;;;;5.10;99.90;;;;;;5102777;27;20019;-68
2022/03/25 06:41:33;;;;;;;;;;;5.30;99.90;;;;;;5108138;27;19927;-68
2022/03/25 06:44:01;;;;;;;;;;;5.40;99.90;;;;;;5099379;27;19931;-68
2022/03/25 06:46:27;;;;;;;;;;;5.50;99.90;;;;;;5102737;27;19924;-69
2022/03/25 06:48:54;;;;;;;;;;;5.60;99.90;;;;;;5107099;27;19935;-69
2022/03/25 06:51:21;;;;;;;;;;;5.70;99.90;;;;;;5106950;27;19924;-73
2022/03/25 06:53:49;;;;;;;;;;;5.90;99.90;;;;;;5102960;27;19930;-68
2022/03/25 06:56:17;;;;;;;;;;;6.00;99.90;;;;;;5100986;27;20028;-69
2022/03/25 06:58:44;;;;;;;;;;;6.10;99.90;;;;;;5098977;27;20011;-68
2022/03/25 07:01:12;;;;;;;;;;;6.20;99.90;;;;;;5094371;27;19930;-68
2022/03/25 07:03:39;;;;;;;;;;;6.40;99.90;;;;;;5093748;27;20290;-68
2022/03/25 07:06:06;;;;;;;;;;;6.50;99.90;;;;;;5108116;28;19924;-70
2022/03/25 07:08:34;;;;;;;;;;;6.60;99.90;;;;;;5106893;27;19932;-69
2022/03/25 07:11:01;;;;;;;;;;;6.70;99.90;;;;;;5100370;27;19924;-69
2022/03/25 07:13:30;;;;;;;;;;;6.70;99.90;;;;;;5095799;27;19932;-69
2022/03/25 07:15:57;;;;;;;;;;;6.90;99.90;;;;;;5094473;27;20158;-70
2022/03/25 07:18:23;;;;;;;;;;;6.90;99.90;;;;;;5101843;27;19924;-68
2022/03/25 07:20:50;;;;;;;;;;;7.00;99.90;;;;;;5103428;27;19934;-68
2022/03/25 07:23:17;;;;;;;;;;;7.10;99.90;;;;;;5103173;28;19957;-68
2022/03/25 07:25:43;;;;;;;;;;;7.30;99.90;;;;;;5099294;27;20276;-68
2022/03/25 07:28:10;;;;;;;;;;;7.50;99.90;;;;;;5103446;28;20027;-68
2022/03/25 07:30:38;;;;;;;;;;;7.60;99.90;;;;;;5100662;28;19928;-68
2022/03/25 07:33:05;;;;;;;;;;;7.70;99.90;;;;;;5102992;28;20744;-69
2022/03/25 07:35:32;;;;;;;;;;;7.90;99.90;;;;;;5100741;27;19924;-70
2022/03/25 07:37:58;;;;;;;;;;;8.10;99.90;;;;;;5102307;28;20336;-68
2022/03/25 07:40:25;;;;;;;;;;;9.20;99.90;;;;;;5100087;28;19932;-67
2022/03/25 07:42:52;;;;;;;;;;;10.20;99.90;;;;;;5098885;28;20445;-78
2022/03/25 07:45:19;;;;;;;;;;;10.40;99.90;;;;;;5098769;28;19943;-69
2022/03/25 07:47:48;;;;;;;;;;;11.00;98.00;;;;;;5104846;28;19939;-69
2022/03/25 07:50:16;;;;;;;;;;;11.20;95.40;;;;;;5106628;27;19931;-69
2022/03/25 07:52:43;;;;;;;;;;;11.50;94.60;;;;;;5104282;28;19930;-69
2022/03/25 07:55:11;;;;;;;;;;;11.50;94.00;;;;;;5104432;27;19938;-70
2022/03/25 07:57:38;;;;;;;;;;;11.70;92.70;;;;;;5103096;27;19928;-69
2022/03/25 08:00:11;;;;;;;;;;;12.00;92.10;;;;;;5104822;27;19923;-69
2022/03/25 08:02:38;;;;;;;;;;;12.00;91.60;;;;;;5108623;28;20274;-68
2022/03/25 08:05:07;;;;;;;;;;;12.60;91.40;;;;;;5105506;28;20298;-69
2022/03/25 08:07:40;;;;;;;;;;;13.00;89.50;;;;;;5100463;28;19931;-68
2022/03/25 08:10:06;;;;;;;;;;;13.40;85.00;;;;;;5105528;27;20319;-68
2022/03/25 08:12:35;;;;;;;;;;;13.70;82.70;;;;;;5105946;28;19924;-68
2022/03/25 08:15:01;;;;;;;;;;;12.90;83.50;;;;;;5106648;27;19934;-69
2022/03/25 08:17:29;;;;;;;;;;;13.10;82.30;;;;;;5109936;27;19947;-69
2022/03/25 08:19:55;;;;;;;;;;;12.80;84.60;;;;;;5101577;28;19930;-68
2022/03/25 08:22:23;;;;;;;;;;;13.50;83.80;;;;;;5109375;27;19928;-69
2022/03/25 08:27:50;;;;;;;;;;;13.20;78.70;;;;;;5103967;28;19931;-68
2022/03/25 08:30:17;;;;;;;;;;;13.10;79.60;;;;;;5105371;28;19959;-69
2022/03/25 08:32:44;;;;;;;;;;;13.80;78.90;;;;;;5108184;28;19940;-69
2022/03/25 08:35:11;;;;;;;;;;;14.50;75.80;;;;;;5103644;28;19935;-70
2022/03/25 08:37:38;;;;;;;;;;;14.70;74.00;;;;;;5105005;28;19971;-69
2022/03/25 08:40:06;;;;;;;;;;;13.70;75.80;;;;;;5105204;28;19923;-68
2022/03/25 08:42:32;;;;;;;;;;;13.50;76.10;;;;;;5100724;28;19924;-70
2022/03/25 08:44:59;;;;;;;;;;;14.20;73.10;;;;;;5108626;28;19924;-70
2022/03/25 08:47:26;;;;;;;;;;;14.40;72.00;;;;;;5113488;28;19924;-69
2022/03/25 08:49:53;;;;;;;;;;;14.30;72.10;;;;;;5106561;28;20003;-67
2022/03/25 08:52:20;;;;;;;;;;;15.30;69.70;;;;;;5102334;28;20007;-68
2022/03/25 08:54:49;;;;;;;;;;;14.70;69.90;;;;;;5101685;28;19942;-68
2022/03/25 08:57:15;;;;;;;;;;;15.20;69.50;;;;;;5113104;28;19923;-69
2022/03/25 08:59:42;;;;;;;;;;;14.50;66.70;;;;;;5103993;28;19924;-69
2022/03/25 09:02:09;;;;;;;;;;;14.20;68.20;;;;;;5109185;28;19923;-69
2022/03/25 09:04:36;;;;;;;;;;;14.40;68.60;;;;;;5102447;28;19924;-69
2022/03/25 09:07:03;;;;;;;;;;;14.40;67.40;;;;;;5105824;28;20002;-69
2022/03/25 09:09:30;;;;;;;;;;;15.20;65.90;;;;;;5105294;28;19949;-68
2022/03/25 09:11:59;;;;;;;;;;;14.80;64.10;;;;;;5109186;28;19977;-68
2022/03/25 09:14:25;;;;;;;;;;;14.70;62.10;;;;;;5115259;28;19927;-69
2022/03/25 09:16:52;;;;;;;;;;;14.10;61.80;;;;;;5107893;28;20197;-68
2022/03/25 09:19:19;;;;;;;;;;;14.20;60.00;;;;;;5107072;28;19931;-69
2022/03/25 09:21:45;;;;;;;;;;;14.60;58.50;;;;;;5104841;28;20332;-69
2022/03/25 09:24:12;;;;;;;;;;;14.30;59.70;;;;;;5106098;28;19930;-70
2022/03/25 09:26:39;;;;;;;;;;;14.10;58.60;;;;;;5106821;28;20011;-69
2022/03/25 09:29:08;;;;;;;;;;;13.50;55.70;;;;;;5115454;27;19923;-70
2022/03/25 09:31:35;;;;;;;;;;;14.10;57.20;;;;;;5112356;27;20018;-69
2022/03/25 09:36:43;;;;;;;;;;;14.60;54.80;;;;;;5104067;27;19930;-70
2022/03/25 09:39:09;;;;;;;;;;;15.00;50.80;;;;;;5107572;27;19966;-70
2022/03/25 09:41:37;;;;;;;;;;;14.80;50.50;;;;;;5103212;28;20282;-69
2022/03/25 09:44:04;;;;;;;;;;;14.80;51.40;;;;;;5100488;27;19928;-70
2022/03/25 09:46:32;;;;;;;;;;;14.60;50.80;;;;;;5104560;28;19927;-70
2022/03/25 09:48:59;;;;;;;;;;;14.10;50.70;;;;;;5105517;27;20015;-70
2022/03/25 09:51:26;;;;;;;;;;;14.10;50.90;;;;;;5102834;28;19930;-70
2022/03/25 09:53:54;;;;;;;;;;;14.80;50.40;;;;;;5103869;27;20395;-68
2022/03/25 09:56:20;;;;;;;;;;;15.30;49.20;;;;;;5103565;27;20309;-68
2022/03/25 09:58:47;;;;;;;;;;;15.30;46.60;;;;;;5102547;27;20064;-69
2022/03/25 10:01:14;;;;;;;;;;;15.30;45.60;;;;;;5102541;28;20116;-69
2022/03/25 10:03:42;;;;;;;;;;;14.70;46.50;;;;;;5101362;28;20360;-69
2022/03/25 10:06:10;;;;;;;;;;;14.90;45.70;;;;;;5101449;28;19938;-69
2022/03/25 10:08:38;;;;;;;;;;;15.00;45.10;;;;;;5102574;28;20428;-69
2022/03/25 10:11:23;;;;;;;;;;;15.20;44.60;;;;;;5100720;27;20394;-69
2022/03/25 10:13:51;;;;;;;;;;;14.90;43.30;;;;;;5100211;28;20314;-68
2022/03/25 10:16:27;;;;;;;;;;;15.40;44.30;;;;;;5105317;28;20563;-69
2022/03/25 10:18:56;;;;;;;;;;;14.60;44.50;;;;;;5101588;27;19924;-70
2022/03/25 10:21:23;;;;;;;;;;;14.60;45.50;;;;;;5105506;28;19931;-69
2022/03/25 10:23:49;;;;;;;;;;;14.20;46.10;;;;;;5103700;27;19924;-71
2022/03/25 10:26:16;;;;;;;;;;;13.80;46.50;;;;;;5100525;28;19931;-69
2022/03/25 10:28:44;;;;;;;;;;;13.80;45.00;;;;;;5097321;28;20437;-70
2022/03/25 10:31:12;;;;;;;;;;;13.90;45.70;;;;;;5096586;28;20461;-69
2022/03/25 10:33:43;;;;;;;;;;;13.80;44.50;;;;;;5103282;28;19924;-70
2022/03/25 10:36:12;;;;;;;;;;;14.10;45.00;;;;;;5099436;28;19924;-70
2022/03/25 10:38:41;;;;;;;;;;;14.10;45.00;;;;;;5103102;28;19931;-69
2022/03/25 10:41:08;;;;;;;;;;;14.20;45.10;;;;;;5099088;28;19927;-70
2022/03/25 10:43:34;;;;;;;;;;;14.30;43.70;;;;;;5105068;28;19932;-69
2022/03/25 10:46:01;;;;;;;;;;;14.40;44.00;;;;;;5097802;28;20442;-70
2022/03/25 10:48:28;;;;;;;;;;;14.60;44.40;;;;;;5101021;28;19923;-69
2022/03/25 10:50:59;;;;;;;;;;;14.30;43.60;;;;;;5106253;27;19982;-69
2022/03/25 10:53:27;;;;;;;;;;;14.50;42.20;;;;;;5095988;27;19971;-69
2022/03/25 10:55:55;;;;;;;;;;;14.70;42.50;;;;;;5098317;28;19928;-69
2022/03/25 10:58:21;;;;;;;;;;;14.60;40.10;;;;;;5100851;28;20385;-69
2022/03/25 11:00:49;;;;;;;;;;;14.50;40.60;;;;;;5101691;28;20011;-71
2022/03/25 11:03:16;;;;;;;;;;;14.60;40.40;;;;;;5100493;27;19942;-70
2022/03/25 11:05:43;;;;;;;;;;;14.70;40.90;;;;;;5104033;28;19938;-69
2022/03/25 11:08:10;;;;;;;;;;;14.50;41.70;;;;;;5102460;27;19959;-69
2022/03/25 11:10:39;;;;;;;;;;;14.40;41.30;;;;;;5096116;28;19924;-69
2022/03/25 11:13:06;;;;;;;;;;;14.80;40.30;;;;;;5103513;28;19951;-69
2022/03/25 11:15:33;;;;;;;;;;;14.80;39.00;;;;;;5098408;28;20098;-69
2022/03/25 11:18:00;;;;;;;;;;;14.60;39.50;;;;;;5101599;28;20033;-68
2022/03/25 11:20:27;;;;;;;;;;;14.80;41.70;;;;;;5096692;27;20403;-69
2022/03/25 11:22:58;;;;;;;;;;;14.80;39.80;;;;;;5103933;28;19932;-70
2022/03/25 11:25:26;;;;;;;;;;;14.90;39.30;;;;;;5101784;28;19931;-69
2022/03/25 11:27:58;;;;;;;;;;;14.70;40.10;;;;;;5100951;28;20338;-69
2022/03/25 11:30:24;;;;;;;;;;;14.70;40.80;;;;;;5098776;28;19946;-69
2022/03/25 11:33:02;;;;;;;;;;;14.60;40.40;;;;;;5104645;28;19923;-69
2022/03/25 11:35:32;;;;;;;;;;;14.90;40.70;;;;;;5100186;28;19965;-70
2022/03/25 11:38:14;;;;;;;;;;;14.80;39.70;;;;;;5097051;28;20043;-70
2022/03/25 11:40:42;;;;;;;;;;;14.90;39.00;;;;;;5099902;27;19927;-70
2022/03/25 11:43:14;;;;;;;;;;;15.10;38.20;;;;;;5096069;28;19930;-69
2022/03/25 11:45:41;;;;;;;;;;;15.10;35.20;;;;;;5099218;27;20306;-70
2022/03/25 11:48:26;;;;;;;;;;;15.50;35.70;;;;;;5099465;27;20375;-69
2022/03/25 11:50:54;;;;;;;;;;;15.50;36.40;;;;;;5103306;28;20405;-67
2022/03/25 11:53:31;;;;;;;;;;;15.50;37.10;;;;;;5097605;27;19927;-68
2022/03/25 11:55:59;;;;;;;;;;;15.80;36.70;;;;;;5093427;28;20394;-69
2022/03/25 11:58:27;;;;;;;;;;;15.50;36.90;;;;;;5097850;28;19924;-69
2022/03/25 12:00:55;;;;;;;;;;;15.40;34.90;;;;;;5108444;27;19970;-70
2022/03/25 12:03:39;;;;;;;;;;;15.40;33.70;;;;;;5098311;27;20240;-68
2022/03/25 12:06:06;;;;;;;;;;;15.60;33.70;;;;;;5099379;27;19940;-68
2022/03/25 12:08:35;;;;;;;;;;;15.60;33.30;;;;;;5102141;27;20359;-70
2022/03/25 12:11:03;;;;;;;;;;;15.70;33.80;;;;;;5101782;27;20378;-69
2022/03/25 12:13:48;;;;;;;;;;;15.60;34.80;;;;;;5100859;28;19924;-75
2022/03/25 12:16:30;;;;;;;;;;;15.70;34.70;;;;;;5098194;28;19959;-69
2022/03/25 12:18:58;;;;;;;;;;;15.60;34.50;;;;;;5101345;27;19923;-69
2022/03/25 12:21:43;;;;;;;;;;;15.50;33.60;;;;;;5101406;28;19936;-70
2022/03/25 12:24:12;;;;;;;;;;;15.70;33.90;;;;;;5102082;28;19924;-68
2022/03/25 12:26:39;;;;;;;;;;;15.70;32.60;;;;;;5098867;28;19930;-70
2022/03/25 12:29:07;;;;;;;;;;;15.50;33.70;;;;;;5100522;28;20387;-71
2022/03/25 12:31:34;;;;;;;;;;;15.60;33.30;;;;;;5101426;28;19998;-69
2022/03/25 12:34:05;;;;;;;;;;;15.60;33.00;;;;;;5101223;28;19928;-70
2022/03/25 12:36:35;;;;;;;;;;;15.80;32.90;;;;;;5095420;28;19924;-75
2022/03/25 12:39:02;;;;;;;;;;;15.90;32.30;;;;;;5095770;28;19931;-69
2022/03/25 12:41:30;;;;;;;;;;;15.70;33.50;;;;;;5102510;28;20368;-70
2022/03/25 12:43:57;;;;;;;;;;;15.90;33.50;;;;;;5098134;28;19924;-68
2022/03/25 12:46:25;;;;;;;;;;;16.10;33.80;;;;;;5101019;28;19928;-68
2022/03/25 12:48:51;;;;;;;;;;;16.10;33.80;;;;;;5101896;28;19938;-68
2022/03/25 12:51:22;;;;;;;;;;;16.40;33.20;;;;;;5097546;28;19924;-69
2022/03/25 12:53:48;;;;;;;;;;;16.40;36.00;;;;;;5096868;28;20401;-69
2022/03/25 12:56:15;;;;;;;;;;;16.20;35.90;;;;;;5099250;28;19927;-67
2022/03/25 12:58:42;;;;;;;;;;;16.40;34.90;;;;;;5100011;28;20011;-68
2022/03/25 13:01:14;;;;;;;;;;;16.60;34.70;;;;;;5100989;28;19924;-67
2022/03/25 13:03:43;;;;;;;;;;;16.50;34.00;;;;;;5104491;27;19924;-70
2022/03/25 13:06:09;;;;;;;;;;;16.10;33.70;;;;;;5103989;28;20384;-69
2022/03/25 13:08:37;;;;;;;;;;;16.20;34.60;;;;;;5105712;28;20465;-68
2022/03/25 13:11:04;;;;;;;;;;;16.00;34.10;;;;;;5104331;28;20031;-69
2022/03/25 13:13:37;;;;;;;;;;;15.80;34.80;;;;;;5102894;28;20206;-69
2022/03/25 13:16:05;;;;;;;;;;;16.10;35.40;;;;;;5102728;28;20465;-67
2022/03/25 13:18:33;;;;;;;;;;;16.60;34.30;;;;;;5104249;28;19977;-68
2022/03/25 13:21:00;;;;;;;;;;;16.30;34.20;;;;;;5103657;27;19924;-69
2022/03/25 13:23:27;;;;;;;;;;;16.00;35.10;;;;;;5105063;28;19927;-69
2022/03/25 13:25:57;;;;;;;;;;;16.40;37.00;;;;;;5101428;28;19974;-67
2022/03/25 13:28:24;;;;;;;;;;;16.50;35.20;;;;;;5099922;28;19931;-68
2022/03/25 13:30:52;;;;;;;;;;;16.50;34.60;;;;;;5098500;27;19931;-68
2022/03/25 13:33:22;;;;;;;;;;;16.60;35.20;;;;;;5100261;27;19932;-69
2022/03/25 13:35:49;;;;;;;;;;;16.50;35.20;;;;;;5105201;28;20015;-69
2022/03/25 13:38:17;;;;;;;;;;;16.40;35.50;;;;;;5106086;28;19995;-69
2022/03/25 13:40:45;;;;;;;;;;;16.50;36.10;;;;;;5104507;27;19938;-69
2022/03/25 13:43:16;;;;;;;;;;;16.40;35.60;;;;;;5097725;28;19932;-69
2022/03/25 13:45:43;;;;;;;;;;;16.50;36.40;;;;;;5098019;27;19932;-69
2022/03/25 13:48:14;;;;;;;;;;;16.30;36.20;;;;;;5101078;28;19967;-68
2022/03/25 13:50:49;;;;;;;;;;;16.40;36.40;;;;;;5100499;27;19931;-69
2022/03/25 13:53:19;;;;;;;;;;;16.30;35.90;;;;;;5100605;27;20586;-69
2022/03/25 13:55:46;;;;;;;;;;;16.40;37.30;;;;;;5102780;28;19955;-68
2022/03/25 13:58:16;;;;;;;;;;;16.40;35.30;;;;;;5102269;27;20006;-70
2022/03/25 14:00:44;;;;;;;;;;;16.60;36.00;;;;;;5104329;28;19931;-69
2022/03/25 14:03:17;;;;;;;;;;;16.90;34.30;;;;;;5103040;28;19924;-68
2022/03/25 14:05:44;;;;;;;;;;;16.80;34.80;;;;;;5103743;28;19924;-68
2022/03/25 14:08:12;;;;;;;;;;;16.80;34.30;;;;;;5100690;28;19985;-69
2022/03/25 14:10:49;;;;;;;;;;;17.00;33.30;;;;;;5103347;28;20007;-69
2022/03/25 14:13:18;;;;;;;;;;;17.00;33.80;;;;;;5102728;28;20031;-69
2022/03/25 14:15:45;;;;;;;;;;;16.80;34.30;;;;;;5105143;28;19927;-69
2022/03/25 14:18:17;;;;;;;;;;;16.70;36.30;;;;;;5102892;28;20350;-67
2022/03/25 14:20:46;;;;;;;;;;;16.50;35.10;;;;;;5102695;27;19942;-69
2022/03/25 14:23:16;;;;;;;;;;;16.70;35.00;;;;;;5104969;28;19955;-68
2022/03/25 14:25:43;;;;;;;;;;;16.70;34.80;;;;;;5100198;28;19923;-68
2022/03/25 14:28:11;;;;;;;;;;;16.70;34.30;;;;;;5101756;28;20000;-67
2022/03/25 14:30:39;;;;;;;;;;;16.50;35.00;;;;;;5102966;27;19924;-67
2022/03/25 14:33:05;;;;;;;;;;;16.90;36.10;;;;;;5096427;28;19924;-67
2022/03/25 14:35:32;;;;;;;;;;;16.90;36.20;;;;;;5099837;28;20267;-68
2022/03/25 14:37:59;;;;;;;;;;;16.50;35.80;;;;;;5098355;27;19923;-68